createdAt,value
2018-11-26T00:00:30.582Z,6.30
2018-11-26T00:01:30.568Z,6.24
2018-11-26T00:02:30.548Z,6.30
2018-11-26T00:03:30.546Z,6.18
2018-11-26T00:04:30.532Z,6.24
2018-11-26T00:05:30.571Z,6.27
2018-11-26T00:06:30.510Z,6.18
2018-11-26T00:07:30.497Z,6.12
2018-11-26T00:08:30.487Z,6.19
2018-11-26T00:09:30.468Z,6.09
2018-11-26T00:10:30.495Z,6.13
2018-11-26T00:11:30.456Z,6.15
2018-11-26T00:12:30.483Z,6.12
2018-11-26T00:13:30.460Z,6.16
2018-11-26T00:14:30.422Z,6.18
2018-11-26T00:15:30.560Z,6.12
2018-11-26T00:16:30.393Z,6.12
2018-11-26T00:17:30.379Z,6.13
2018-11-26T00:18:30.382Z,6.06
2018-11-26T00:19:30.407Z,6.08
2018-11-26T00:20:30.379Z,6.08
2018-11-26T00:21:30.337Z,6.08
2018-11-26T00:22:30.330Z,5.94
2018-11-26T00:23:30.323Z,5.98
2018-11-26T00:24:30.310Z,6.03
2018-11-26T00:25:30.393Z,6.00
2018-11-26T00:26:30.282Z,6.03
2018-11-26T00:27:30.269Z,5.97
2018-11-26T00:28:30.256Z,6.11
2018-11-26T00:29:30.251Z,6.03
2018-11-26T00:30:30.260Z,6.08
2018-11-26T00:31:30.229Z,6.05
2018-11-26T00:32:30.217Z,6.12
2018-11-26T00:33:30.236Z,6.03
2018-11-26T00:34:30.208Z,6.02
2018-11-26T00:35:30.199Z,5.94
2018-11-26T00:36:30.167Z,6.08
2018-11-26T00:37:30.163Z,6.09
2018-11-26T00:38:30.155Z,5.95
2018-11-26T00:39:30.174Z,5.94
2018-11-26T00:40:30.146Z,5.95
2018-11-26T00:41:30.177Z,6.05
2018-11-26T00:42:30.113Z,6.15
2018-11-26T00:43:30.091Z,6.03
2018-11-26T00:44:30.091Z,6.09
2018-11-26T00:45:30.093Z,6.09
2018-11-26T00:46:30.058Z,5.97
2018-11-26T00:47:30.088Z,5.94
2018-11-26T00:48:30.043Z,6.09
2018-11-26T00:49:30.022Z,6.03
2018-11-26T00:50:30.047Z,6.03
2018-11-26T00:51:30.004Z,6.08
2018-11-26T00:52:29.986Z,6.13
2018-11-26T00:53:30.000Z,6.03
2018-11-26T00:54:29.968Z,6.06
2018-11-26T00:55:29.976Z,6.03
2018-11-26T00:56:29.968Z,6.08
2018-11-26T00:57:29.971Z,6.13
2018-11-26T00:58:29.948Z,6.09
2018-11-26T00:59:29.924Z,6.06
2018-11-26T01:00:29.991Z,6.02
2018-11-26T01:01:29.901Z,6.18
2018-11-26T01:02:29.877Z,6.03
2018-11-26T01:03:29.865Z,6.00
2018-11-26T01:04:29.873Z,6.06
2018-11-26T01:05:29.878Z,6.02
2018-11-26T01:06:29.842Z,6.03
2018-11-26T01:07:29.839Z,5.98
2018-11-26T01:08:29.854Z,6.02
2018-11-26T01:09:29.810Z,6.06
2018-11-26T01:10:29.818Z,6.00
2018-11-26T01:11:29.830Z,6.05
2018-11-26T01:12:29.764Z,6.05
2018-11-26T01:13:29.784Z,6.00
2018-11-26T01:14:29.751Z,5.98
2018-11-26T01:15:29.758Z,6.02
2018-11-26T01:16:29.757Z,6.03
2018-11-26T01:17:29.712Z,6.02
2018-11-26T01:18:29.704Z,5.85
2018-11-26T01:19:29.686Z,5.91
2018-11-26T01:20:29.704Z,5.85
2018-11-26T01:21:29.681Z,5.91
2018-11-26T01:22:29.681Z,5.91
2018-11-26T01:23:29.658Z,5.85
2018-11-26T01:24:29.646Z,5.85
2018-11-26T01:25:29.660Z,5.82
2018-11-26T01:26:29.613Z,5.91
2018-11-26T01:27:29.614Z,5.85
2018-11-26T01:28:29.606Z,5.87
2018-11-26T01:29:29.611Z,5.87
2018-11-26T01:30:29.607Z,5.80
2018-11-26T01:31:29.555Z,5.84
2018-11-26T01:32:29.545Z,5.77
2018-11-26T01:33:29.602Z,5.80
2018-11-26T01:34:29.527Z,5.80
2018-11-26T01:35:29.549Z,5.73
2018-11-26T01:36:29.550Z,5.80
2018-11-26T01:37:29.487Z,5.80
2018-11-26T01:38:29.535Z,5.93
2018-11-26T01:39:29.491Z,5.75
2018-11-26T01:40:29.478Z,5.76
2018-11-26T01:41:29.510Z,5.79
2018-11-26T01:42:29.447Z,5.69
2018-11-26T01:43:29.422Z,5.72
2018-11-26T01:44:29.423Z,5.66
2018-11-26T01:45:29.405Z,5.76
2018-11-26T01:46:29.445Z,5.67
2018-11-26T01:47:29.396Z,5.69
2018-11-26T01:48:29.421Z,5.66
2018-11-26T01:49:29.355Z,5.70
2018-11-26T01:50:29.343Z,5.70
2018-11-26T01:51:29.395Z,5.70
2018-11-26T01:52:29.399Z,5.66
2018-11-26T01:53:29.338Z,5.69
2018-11-26T01:54:29.323Z,5.75
2018-11-26T01:55:29.302Z,5.79
2018-11-26T01:56:29.394Z,5.79
2018-11-26T01:57:29.271Z,5.82
2018-11-26T01:58:29.277Z,5.77
2018-11-26T01:59:29.249Z,5.88
2018-11-26T02:00:29.295Z,5.88
2018-11-26T02:01:29.313Z,5.87
2018-11-26T02:02:29.214Z,5.77
2018-11-26T02:03:29.205Z,5.75
2018-11-26T02:04:29.200Z,5.76
2018-11-26T02:05:29.269Z,5.77
2018-11-26T02:06:29.203Z,5.84
2018-11-26T02:07:29.189Z,5.77
2018-11-26T02:08:29.146Z,5.75
2018-11-26T02:09:29.140Z,5.80
2018-11-26T02:10:29.229Z,5.82
2018-11-26T02:11:29.164Z,5.90
2018-11-26T02:12:29.139Z,5.84
2018-11-26T02:13:29.337Z,5.80
2018-11-26T02:14:29.120Z,5.75
2018-11-26T02:15:29.085Z,5.79
2018-11-26T02:16:29.081Z,5.84
2018-11-26T02:17:29.058Z,5.76
2018-11-26T02:18:29.111Z,5.77
2018-11-26T02:19:29.025Z,5.82
2018-11-26T02:20:29.043Z,5.77
2018-11-26T02:21:29.044Z,5.73
2018-11-26T02:22:29.022Z,5.80
2018-11-26T02:23:29.058Z,5.76
2018-11-26T02:24:28.974Z,5.70
2018-11-26T02:25:28.958Z,5.85
2018-11-26T02:26:29.077Z,5.82
2018-11-26T02:27:28.940Z,5.77
2018-11-26T02:28:28.976Z,5.87
2018-11-26T02:29:28.981Z,5.87
2018-11-26T02:30:28.912Z,5.84
2018-11-26T02:31:28.956Z,5.87
2018-11-26T02:32:28.881Z,5.67
2018-11-26T02:33:28.879Z,5.79
2018-11-26T02:34:28.860Z,5.70
2018-11-26T02:35:28.869Z,5.70
2018-11-26T02:36:28.875Z,5.75
2018-11-26T02:37:28.932Z,5.84
2018-11-26T02:38:28.826Z,5.77
2018-11-26T02:39:28.816Z,5.76
2018-11-26T02:40:28.805Z,5.73
2018-11-26T02:41:28.824Z,5.75
2018-11-26T02:42:28.774Z,5.65
2018-11-26T02:43:28.804Z,5.69
2018-11-26T02:44:28.759Z,5.61
2018-11-26T02:45:28.756Z,5.55
2018-11-26T02:46:28.779Z,5.62
2018-11-26T02:47:28.754Z,5.58
2018-11-26T02:48:28.740Z,5.61
2018-11-26T02:49:28.697Z,5.62
2018-11-26T02:50:28.684Z,5.61
2018-11-26T02:51:28.730Z,5.72
2018-11-26T02:52:28.696Z,5.65
2018-11-26T02:53:28.668Z,5.62
2018-11-26T02:54:28.683Z,5.66
2018-11-26T02:55:28.649Z,5.66
2018-11-26T02:56:28.671Z,5.73
2018-11-26T02:57:28.702Z,5.73
2018-11-26T02:58:28.608Z,5.79
2018-11-26T02:59:28.601Z,5.82
2018-11-26T03:00:28.590Z,5.76
2018-11-26T03:01:28.583Z,5.73
2018-11-26T03:02:28.578Z,5.79
2018-11-26T03:03:28.587Z,5.79
2018-11-26T03:04:28.536Z,5.72
2018-11-26T03:05:28.525Z,5.69
2018-11-26T03:06:28.543Z,5.69
2018-11-26T03:07:28.516Z,5.69
2018-11-26T03:08:28.493Z,5.65
2018-11-26T03:09:28.513Z,5.55
2018-11-26T03:10:29.143Z,5.58
2018-11-26T03:11:28.452Z,5.54
2018-11-26T03:12:28.472Z,5.54
2018-11-26T03:13:28.447Z,5.48
2018-11-26T03:14:28.446Z,5.55
2018-11-26T03:15:28.412Z,5.57
2018-11-26T03:16:28.422Z,5.59
2018-11-26T03:17:28.433Z,5.57
2018-11-26T03:18:28.391Z,5.43
2018-11-26T03:19:28.379Z,5.59
2018-11-26T03:20:28.409Z,5.48
2018-11-26T03:21:28.345Z,5.55
2018-11-26T03:22:28.371Z,5.43
2018-11-26T03:23:28.366Z,5.50
2018-11-26T03:24:28.307Z,5.34
2018-11-26T03:25:28.370Z,5.40
2018-11-26T03:26:28.289Z,5.39
2018-11-26T03:27:28.306Z,5.43
2018-11-26T03:28:28.261Z,5.44
2018-11-26T03:29:28.250Z,5.41
2018-11-26T03:30:28.242Z,5.54
2018-11-26T03:31:28.304Z,5.48
2018-11-26T03:32:28.236Z,5.43
2018-11-26T03:33:28.211Z,5.50
2018-11-26T03:34:28.226Z,5.48
2018-11-26T03:35:28.185Z,5.47
2018-11-26T03:36:28.207Z,5.43
2018-11-26T03:37:28.193Z,5.50
2018-11-26T03:38:28.214Z,5.44
2018-11-26T03:39:28.194Z,5.43
2018-11-26T03:40:28.189Z,5.44
2018-11-26T03:41:28.138Z,5.43
2018-11-26T03:42:28.128Z,5.41
2018-11-26T03:43:28.128Z,5.41
2018-11-26T03:44:28.108Z,5.47
2018-11-26T03:45:28.092Z,5.47
2018-11-26T03:46:28.119Z,5.36
2018-11-26T03:47:28.088Z,5.50
2018-11-26T03:48:28.040Z,5.50
2018-11-26T03:49:28.029Z,5.48
2018-11-26T03:50:28.032Z,5.54
2018-11-26T03:51:28.026Z,5.54
2018-11-26T03:52:28.082Z,5.48
2018-11-26T03:53:27.994Z,5.52
2018-11-26T03:54:27.978Z,5.58
2018-11-26T03:55:27.969Z,5.70
2018-11-26T03:56:27.963Z,5.58
2018-11-26T03:57:27.988Z,5.59
2018-11-26T03:58:28.036Z,5.59
2018-11-26T03:59:27.926Z,5.58
2018-11-26T04:00:27.935Z,5.52
2018-11-26T04:01:27.932Z,5.55
2018-11-26T04:02:27.925Z,5.50
2018-11-26T04:03:27.888Z,5.43
2018-11-26T04:04:27.984Z,5.54
2018-11-26T04:05:27.851Z,5.48
2018-11-26T04:06:27.854Z,5.55
2018-11-26T04:07:27.862Z,5.51
2018-11-26T04:08:27.848Z,5.50
2018-11-26T04:09:27.859Z,5.52
2018-11-26T04:10:27.814Z,5.52
2018-11-26T04:11:27.789Z,5.62
2018-11-26T04:12:27.796Z,5.44
2018-11-26T04:13:27.790Z,5.55
2018-11-26T04:14:27.821Z,5.51
2018-11-26T04:15:27.762Z,5.48
2018-11-26T04:16:27.801Z,5.47
2018-11-26T04:17:27.818Z,5.43
2018-11-26T04:18:27.711Z,5.37
2018-11-26T04:19:28.051Z,5.54
2018-11-26T04:20:27.698Z,5.48
2018-11-26T04:21:27.714Z,5.48
2018-11-26T04:22:27.746Z,5.52
2018-11-26T04:23:27.656Z,5.61
2018-11-26T04:24:27.640Z,5.59
2018-11-26T04:25:27.674Z,5.58
2018-11-26T04:26:27.630Z,5.47
2018-11-26T04:27:27.618Z,5.51
2018-11-26T04:28:27.652Z,5.43
2018-11-26T04:29:27.591Z,5.40
2018-11-26T04:30:27.625Z,5.41
2018-11-26T04:31:27.588Z,5.37
2018-11-26T04:32:27.594Z,5.37
2018-11-26T04:33:27.583Z,5.43
2018-11-26T04:34:27.531Z,5.48
2018-11-26T04:35:27.522Z,5.44
2018-11-26T04:36:27.559Z,5.37
2018-11-26T04:37:27.518Z,5.43
2018-11-26T04:38:27.520Z,5.44
2018-11-26T04:39:27.475Z,5.47
2018-11-26T04:40:27.498Z,5.52
2018-11-26T04:41:27.456Z,5.40
2018-11-26T04:42:27.466Z,5.52
2018-11-26T04:43:27.453Z,5.54
2018-11-26T04:44:27.438Z,5.57
2018-11-26T04:45:27.420Z,5.57
2018-11-26T04:46:27.437Z,5.54
2018-11-26T04:47:27.387Z,5.55
2018-11-26T04:48:27.394Z,5.65
2018-11-26T04:49:27.372Z,5.48
2018-11-26T04:50:27.360Z,5.51
2018-11-26T04:51:27.347Z,5.43
2018-11-26T04:52:27.335Z,5.44
2018-11-26T04:53:27.391Z,5.47
2018-11-26T04:54:27.306Z,5.51
2018-11-26T04:55:27.306Z,5.52
2018-11-26T04:56:27.295Z,5.48
2018-11-26T04:57:27.273Z,5.57
2018-11-26T04:58:27.304Z,5.61
2018-11-26T04:59:27.330Z,5.50
2018-11-26T05:00:27.246Z,5.57
2018-11-26T05:01:27.244Z,5.59
2018-11-26T05:02:27.220Z,5.58
2018-11-26T05:03:27.235Z,5.50
2018-11-26T05:04:27.236Z,5.43
2018-11-26T05:05:28.217Z,5.44
2018-11-26T05:06:27.179Z,5.40
2018-11-26T05:07:27.187Z,5.41
2018-11-26T05:08:27.179Z,5.48
2018-11-26T05:09:27.145Z,5.55
2018-11-26T05:10:27.144Z,5.44
2018-11-26T05:11:27.136Z,5.47
2018-11-26T05:12:27.121Z,5.50
2018-11-26T05:13:27.119Z,5.48
2018-11-26T05:14:27.097Z,5.44
2018-11-26T05:15:27.092Z,5.43
2018-11-26T05:16:27.072Z,5.40
2018-11-26T05:17:27.738Z,5.50
2018-11-26T05:18:27.068Z,5.43
2018-11-26T05:19:27.045Z,5.47
2018-11-26T05:20:27.023Z,5.52
2018-11-26T05:21:27.054Z,5.50
2018-11-26T05:22:27.012Z,5.48
2018-11-26T05:23:27.021Z,5.40
2018-11-26T05:24:26.978Z,5.39
2018-11-26T05:25:26.989Z,5.40
2018-11-26T05:26:26.974Z,5.44
2018-11-26T05:27:26.956Z,5.41
2018-11-26T05:28:26.962Z,5.47
2018-11-26T05:29:26.952Z,5.44
2018-11-26T05:30:26.936Z,5.59
2018-11-26T05:31:26.927Z,5.51
2018-11-26T05:32:26.924Z,5.48
2018-11-26T05:33:26.954Z,5.44
2018-11-26T05:34:26.868Z,5.43
2018-11-26T05:35:26.864Z,5.36
2018-11-26T05:36:26.853Z,5.44
2018-11-26T05:37:26.837Z,5.39
2018-11-26T05:38:26.862Z,5.40
2018-11-26T05:39:26.880Z,5.43
2018-11-26T05:40:26.957Z,5.39
2018-11-26T05:41:26.810Z,5.36
2018-11-26T05:42:28.755Z,5.34
2018-11-26T05:43:26.857Z,5.37
2018-11-26T05:44:26.758Z,5.33
2018-11-26T05:45:26.762Z,5.27
2018-11-26T05:46:26.737Z,5.29
2018-11-26T05:47:26.892Z,5.25
2018-11-26T05:48:26.750Z,5.37
2018-11-26T05:49:26.730Z,5.40
2018-11-26T05:50:26.717Z,5.32
2018-11-26T05:51:26.698Z,5.32
2018-11-26T05:52:26.731Z,5.30
2018-11-26T05:53:26.684Z,5.36
2018-11-26T05:54:26.679Z,5.37
2018-11-26T05:55:26.649Z,5.40
2018-11-26T05:56:26.636Z,5.25
2018-11-26T05:57:26.623Z,5.27
2018-11-26T05:58:26.659Z,5.36
2018-11-26T05:59:26.639Z,5.25
2018-11-26T06:00:26.619Z,5.22
2018-11-26T06:01:26.585Z,5.27
2018-11-26T06:02:26.603Z,5.22
2018-11-26T06:03:26.556Z,5.27
2018-11-26T06:04:26.607Z,5.32
2018-11-26T06:05:26.530Z,5.27
2018-11-26T06:06:26.556Z,5.22
2018-11-26T06:07:26.542Z,5.22
2018-11-26T06:08:26.617Z,5.19
2018-11-26T06:09:26.526Z,5.19
2018-11-26T06:10:26.497Z,5.19
2018-11-26T06:11:27.014Z,5.12
2018-11-26T06:12:26.459Z,5.15
2018-11-26T06:13:26.522Z,5.14
2018-11-26T06:14:26.456Z,5.11
2018-11-26T06:15:26.445Z,5.15
2018-11-26T06:16:26.406Z,5.16
2018-11-26T06:17:26.401Z,5.14
2018-11-26T06:18:26.958Z,5.11
2018-11-26T06:19:26.419Z,5.06
2018-11-26T06:20:26.364Z,5.11
2018-11-26T06:21:26.435Z,5.09
2018-11-26T06:22:26.379Z,5.15
2018-11-26T06:23:26.333Z,5.15
2018-11-26T06:24:26.401Z,5.09
2018-11-26T06:25:26.395Z,5.09
2018-11-26T06:26:26.301Z,5.16
2018-11-26T06:27:26.287Z,5.19
2018-11-26T06:28:26.307Z,5.22
2018-11-26T06:29:26.625Z,5.11
2018-11-26T06:30:26.261Z,5.16
2018-11-26T06:31:26.317Z,5.15
2018-11-26T06:32:26.235Z,5.15
2018-11-26T06:33:26.222Z,5.11
2018-11-26T06:34:26.404Z,5.14
2018-11-26T06:35:26.212Z,5.07
2018-11-26T06:36:26.199Z,5.03
2018-11-26T06:37:26.330Z,5.14
2018-11-26T06:38:26.182Z,5.14
2018-11-26T06:39:26.194Z,5.16
2018-11-26T06:40:26.201Z,5.22
2018-11-26T06:41:26.137Z,5.22
2018-11-26T06:42:26.149Z,5.16
2018-11-26T06:43:26.186Z,5.19
2018-11-26T06:44:26.131Z,5.25
2018-11-26T06:45:26.107Z,5.24
2018-11-26T06:46:26.087Z,5.29
2018-11-26T06:47:26.075Z,5.29
2018-11-26T06:48:26.202Z,5.19
2018-11-26T06:49:26.095Z,5.19
2018-11-26T06:50:26.062Z,5.22
2018-11-26T06:51:26.023Z,5.19
2018-11-26T06:52:26.033Z,5.16
2018-11-26T06:53:26.019Z,5.22
2018-11-26T06:54:26.035Z,5.21
2018-11-26T06:55:25.981Z,5.09
2018-11-26T06:56:25.968Z,5.12
2018-11-26T06:57:25.963Z,5.07
2018-11-26T06:58:26.059Z,5.06
2018-11-26T06:59:26.003Z,5.06
2018-11-26T07:00:25.924Z,5.03
2018-11-26T07:01:25.935Z,5.07
2018-11-26T07:02:25.919Z,5.01
2018-11-26T07:03:25.896Z,5.04
2018-11-26T07:04:25.917Z,5.01
2018-11-26T07:05:25.885Z,5.01
2018-11-26T07:06:25.889Z,5.07
2018-11-26T07:07:25.869Z,5.11
2018-11-26T07:08:25.848Z,5.11
2018-11-26T07:09:25.983Z,5.06
2018-11-26T07:10:25.865Z,5.12
2018-11-26T07:11:25.831Z,5.11
2018-11-26T07:12:25.806Z,5.15
2018-11-26T07:13:25.793Z,5.15
2018-11-26T07:14:25.799Z,5.24
2018-11-26T07:15:25.760Z,5.22
2018-11-26T07:16:25.866Z,5.22
2018-11-26T07:17:25.772Z,5.19
2018-11-26T07:18:25.730Z,5.09
2018-11-26T07:19:25.773Z,5.16
2018-11-26T07:20:25.710Z,5.14
2018-11-26T07:21:25.693Z,5.11
2018-11-26T07:22:25.712Z,5.14
2018-11-26T07:23:25.674Z,5.11
2018-11-26T07:24:25.774Z,5.07
2018-11-26T07:25:25.655Z,4.98
2018-11-26T07:26:25.638Z,5.11
2018-11-26T07:27:25.633Z,5.07
2018-11-26T07:28:25.654Z,5.07
2018-11-26T07:29:25.634Z,5.12
2018-11-26T07:30:25.605Z,5.15
2018-11-26T07:31:25.593Z,5.11
2018-11-26T07:32:25.606Z,5.11
2018-11-26T07:33:25.569Z,5.09
2018-11-26T07:34:25.558Z,5.29
2018-11-26T07:35:25.576Z,5.19
2018-11-26T07:36:25.685Z,5.30
2018-11-26T07:37:25.531Z,5.30
2018-11-26T07:38:25.532Z,5.32
2018-11-26T07:39:25.501Z,5.29
2018-11-26T07:40:25.505Z,5.27
2018-11-26T07:41:25.522Z,5.27
2018-11-26T07:42:25.470Z,5.30
2018-11-26T07:43:25.450Z,5.36
2018-11-26T07:44:25.447Z,5.32
2018-11-26T07:45:25.448Z,5.33
2018-11-26T07:46:25.428Z,5.32
2018-11-26T07:47:25.432Z,5.34
2018-11-26T07:48:25.426Z,5.37
2018-11-26T07:49:25.389Z,5.36
2018-11-26T07:50:25.393Z,5.43
2018-11-26T07:51:25.373Z,5.41
2018-11-26T07:52:25.351Z,5.33
2018-11-26T07:53:25.342Z,5.36
2018-11-26T07:54:25.343Z,5.47
2018-11-26T07:55:25.344Z,5.47
2018-11-26T07:56:25.451Z,5.41
2018-11-26T07:57:25.317Z,5.40
2018-11-26T07:58:25.339Z,5.44
2018-11-26T07:59:25.277Z,5.44
2018-11-26T08:00:25.301Z,5.41
2018-11-26T08:01:25.251Z,5.43
2018-11-26T08:02:25.245Z,5.44
2018-11-26T08:03:25.246Z,5.40
2018-11-26T08:04:25.269Z,5.50
2018-11-26T08:05:25.275Z,5.43
2018-11-26T08:06:25.213Z,5.43
2018-11-26T08:07:25.187Z,5.44
2018-11-26T08:08:25.173Z,5.43
2018-11-26T08:09:25.186Z,5.44
2018-11-26T08:10:25.185Z,5.33
2018-11-26T08:11:25.218Z,5.37
2018-11-26T08:12:25.149Z,5.43
2018-11-26T08:13:25.141Z,5.33
2018-11-26T08:14:25.130Z,5.32
2018-11-26T08:15:25.128Z,5.39
2018-11-26T08:16:25.088Z,5.36
2018-11-26T08:17:25.276Z,5.36
2018-11-26T08:18:25.062Z,5.37
2018-11-26T08:19:25.070Z,5.33
2018-11-26T08:20:25.072Z,5.33
2018-11-26T08:21:25.055Z,5.33
2018-11-26T08:22:25.062Z,5.37
2018-11-26T08:23:25.035Z,5.43
2018-11-26T08:24:25.132Z,5.43
2018-11-26T08:25:25.024Z,5.48
2018-11-26T08:26:24.986Z,5.40
2018-11-26T08:27:24.964Z,5.50
2018-11-26T08:28:24.957Z,5.47
2018-11-26T08:29:25.034Z,5.39
2018-11-26T08:30:24.959Z,5.41
2018-11-26T08:31:24.928Z,5.44
2018-11-26T08:32:24.930Z,5.36
2018-11-26T08:33:24.899Z,5.43
2018-11-26T08:34:24.885Z,5.32
2018-11-26T08:35:24.902Z,5.43
2018-11-26T08:36:24.971Z,5.44
2018-11-26T08:37:24.860Z,5.41
2018-11-26T08:38:24.874Z,5.43
2018-11-26T08:39:24.917Z,5.37
2018-11-26T08:40:24.937Z,5.41
2018-11-26T08:41:24.812Z,5.47
2018-11-26T08:42:24.802Z,5.37
2018-11-26T08:43:24.979Z,5.47
2018-11-26T08:44:24.790Z,5.37
2018-11-26T08:45:24.811Z,5.59
2018-11-26T08:46:24.751Z,5.59
2018-11-26T08:47:24.770Z,5.54
2018-11-26T08:48:24.734Z,5.50
2018-11-26T08:49:24.724Z,5.55
2018-11-26T08:50:24.731Z,5.55
2018-11-26T08:51:24.704Z,5.52
2018-11-26T08:52:24.685Z,5.52
2018-11-26T08:53:24.686Z,5.52
2018-11-26T08:54:24.667Z,5.58
2018-11-26T08:55:24.655Z,5.57
2018-11-26T08:56:24.663Z,5.70
2018-11-26T08:57:24.684Z,5.65
2018-11-26T08:58:24.632Z,5.69
2018-11-26T08:59:24.622Z,5.70
2018-11-26T09:00:24.691Z,5.69
2018-11-26T09:01:24.607Z,5.69
2018-11-26T09:02:24.642Z,5.72
2018-11-26T09:03:24.563Z,5.80
2018-11-26T09:04:24.551Z,5.76
2018-11-26T09:05:24.577Z,5.77
2018-11-26T09:06:24.563Z,5.84
2018-11-26T09:07:24.556Z,5.84
2018-11-26T09:08:24.527Z,5.82
2018-11-26T09:09:24.547Z,5.80
2018-11-26T09:10:24.490Z,5.85
2018-11-26T09:11:24.493Z,5.85
2018-11-26T09:12:24.462Z,5.88
2018-11-26T09:13:24.481Z,5.85
2018-11-26T09:14:24.480Z,5.84
2018-11-26T09:15:24.431Z,5.88
2018-11-26T09:16:24.439Z,5.77
2018-11-26T09:17:24.408Z,5.88
2018-11-26T09:18:24.402Z,5.87
2018-11-26T09:19:24.387Z,5.76
2018-11-26T09:20:24.397Z,5.88
2018-11-26T09:21:24.576Z,5.82
2018-11-26T09:22:24.359Z,5.94
2018-11-26T09:23:24.367Z,5.95
2018-11-26T09:24:24.348Z,5.94
2018-11-26T09:25:24.581Z,5.97
2018-11-26T09:26:24.392Z,5.95
2018-11-26T09:27:24.297Z,5.88
2018-11-26T09:28:24.292Z,5.90
2018-11-26T09:29:24.573Z,5.93
2018-11-26T09:30:24.293Z,5.95
2018-11-26T09:31:24.286Z,5.97
2018-11-26T09:32:24.241Z,6.02
2018-11-26T09:33:24.236Z,6.00
2018-11-26T09:34:24.254Z,6.08
2018-11-26T09:35:24.211Z,6.11
2018-11-26T09:36:24.233Z,6.03
2018-11-26T09:37:24.207Z,6.09
2018-11-26T09:38:24.178Z,6.02
2018-11-26T09:39:24.221Z,6.08
2018-11-26T09:40:24.182Z,6.11
2018-11-26T09:41:24.226Z,5.98
2018-11-26T09:42:24.136Z,6.08
2018-11-26T09:43:24.151Z,6.09
2018-11-26T09:44:24.186Z,6.06
2018-11-26T09:45:24.105Z,6.06
2018-11-26T09:46:24.123Z,6.09
2018-11-26T09:47:24.205Z,6.11
2018-11-26T09:48:24.106Z,6.13
2018-11-26T09:49:24.056Z,6.18
2018-11-26T09:50:24.083Z,6.08
2018-11-26T09:51:24.097Z,6.08
2018-11-26T09:52:24.034Z,6.15
2018-11-26T09:53:24.019Z,6.15
2018-11-26T09:54:26.006Z,6.19
2018-11-26T09:55:23.986Z,6.09
2018-11-26T09:56:24.037Z,6.25
2018-11-26T09:57:23.963Z,6.27
2018-11-26T09:58:23.958Z,6.15
2018-11-26T09:59:23.968Z,6.30
2018-11-26T10:00:23.963Z,6.37
2018-11-26T10:01:23.932Z,6.28
2018-11-26T10:02:23.987Z,6.34
2018-11-26T10:03:24.028Z,6.24
2018-11-26T10:04:23.895Z,6.38
2018-11-26T10:05:23.883Z,6.28
2018-11-26T10:06:24.057Z,6.37
2018-11-26T10:07:23.859Z,6.38
2018-11-26T10:08:23.864Z,6.38
2018-11-26T10:09:23.845Z,6.46
2018-11-26T10:10:23.975Z,6.53
2018-11-26T10:11:23.833Z,6.50
2018-11-26T10:12:23.843Z,6.43
2018-11-26T10:13:24.597Z,6.49
2018-11-26T10:14:23.824Z,6.50
2018-11-26T10:15:23.773Z,6.46
2018-11-26T10:16:23.778Z,6.46
2018-11-26T10:17:23.978Z,6.42
2018-11-26T10:18:23.749Z,6.46
2018-11-26T10:19:23.747Z,6.47
2018-11-26T10:20:23.721Z,6.46
2018-11-26T10:21:23.754Z,6.50
2018-11-26T10:22:23.726Z,6.52
2018-11-26T10:23:23.730Z,6.60
2018-11-26T10:24:23.675Z,6.60
2018-11-26T10:25:23.686Z,6.52
2018-11-26T10:26:23.668Z,6.64
2018-11-26T10:27:23.709Z,6.57
2018-11-26T10:28:23.637Z,6.55
2018-11-26T10:29:23.629Z,6.56
2018-11-26T10:30:23.653Z,6.52
2018-11-26T10:31:23.594Z,6.50
2018-11-26T10:32:23.610Z,6.47
2018-11-26T10:33:23.569Z,6.53
2018-11-26T10:34:23.641Z,6.49
2018-11-26T10:35:23.569Z,6.50
2018-11-26T10:36:23.588Z,6.56
2018-11-26T10:37:23.582Z,6.55
2018-11-26T10:38:23.514Z,6.53
2018-11-26T10:39:23.500Z,6.52
2018-11-26T10:40:23.491Z,6.56
2018-11-26T10:41:23.483Z,6.64
2018-11-26T10:42:23.515Z,6.56
2018-11-26T10:43:23.478Z,6.53
2018-11-26T10:44:23.446Z,6.56
2018-11-26T10:45:23.441Z,6.57
2018-11-26T10:46:23.420Z,6.67
2018-11-26T10:47:23.434Z,6.52
2018-11-26T10:48:23.397Z,6.63
2018-11-26T10:49:23.487Z,6.65
2018-11-26T10:50:23.391Z,6.67
2018-11-26T10:51:23.369Z,6.74
2018-11-26T10:52:23.390Z,6.61
2018-11-26T10:53:23.361Z,6.68
2018-11-26T10:54:23.335Z,6.68
2018-11-26T10:55:23.332Z,6.71
2018-11-26T10:56:23.317Z,6.63
2018-11-26T10:57:23.358Z,6.67
2018-11-26T10:58:23.291Z,6.60
2018-11-26T10:59:23.276Z,6.71
2018-11-26T11:00:23.355Z,6.64
2018-11-26T11:01:23.260Z,6.64
2018-11-26T11:02:23.297Z,6.63
2018-11-26T11:03:23.240Z,6.71
2018-11-26T11:04:23.219Z,6.71
2018-11-26T11:05:23.248Z,6.71
2018-11-26T11:06:23.206Z,6.65
2018-11-26T11:07:23.296Z,6.56
2018-11-26T11:08:23.829Z,6.52
2018-11-26T11:09:23.165Z,6.50
2018-11-26T11:10:23.293Z,6.57
2018-11-26T11:11:23.591Z,6.53
2018-11-26T11:12:23.156Z,6.56
2018-11-26T11:13:23.137Z,6.60
2018-11-26T11:14:23.166Z,6.55
2018-11-26T11:15:23.098Z,6.57
2018-11-26T11:16:23.106Z,6.53
2018-11-26T11:17:23.174Z,6.61
2018-11-26T11:18:23.075Z,6.53
2018-11-26T11:19:23.097Z,6.53
2018-11-26T11:20:23.047Z,6.57
2018-11-26T11:21:23.062Z,6.57
2018-11-26T11:22:23.044Z,6.52
2018-11-26T11:23:23.090Z,6.60
2018-11-26T11:24:23.005Z,6.53
2018-11-26T11:25:22.989Z,6.63
2018-11-26T11:26:22.989Z,6.64
2018-11-26T11:27:23.005Z,6.75
2018-11-26T11:28:22.975Z,6.67
2018-11-26T11:29:22.942Z,6.73
2018-11-26T11:30:22.947Z,6.71
2018-11-26T11:31:23.014Z,6.74
2018-11-26T11:32:22.926Z,6.64
2018-11-26T11:34:22.906Z,6.73
2018-11-26T11:35:22.934Z,6.70
2018-11-26T11:36:22.879Z,6.70
2018-11-26T11:37:22.875Z,6.70
2018-11-26T11:38:22.874Z,6.73
2018-11-26T11:39:22.856Z,6.74
2018-11-26T11:40:22.824Z,6.82
2018-11-26T11:41:22.809Z,6.75
2018-11-26T11:42:22.839Z,6.70
2018-11-26T11:43:22.822Z,6.82
2018-11-26T11:44:22.787Z,6.83
2018-11-26T11:45:22.862Z,6.79
2018-11-26T11:46:22.803Z,6.79
2018-11-26T11:47:22.747Z,6.78
2018-11-26T11:48:22.753Z,6.86
2018-11-26T11:49:22.733Z,6.82
2018-11-26T11:50:22.782Z,6.81
2018-11-26T11:51:22.709Z,6.86
2018-11-26T11:52:22.712Z,6.86
2018-11-26T11:53:22.734Z,6.89
2018-11-26T11:54:22.668Z,6.93
2018-11-26T11:55:22.651Z,6.93
2018-11-26T11:56:22.660Z,6.89
2018-11-26T11:57:22.745Z,6.99
2018-11-26T11:58:22.650Z,6.92
2018-11-26T11:59:22.635Z,6.88
2018-11-26T12:00:22.785Z,6.96
2018-11-26T12:01:22.609Z,6.91
2018-11-26T12:02:22.577Z,7.03
2018-11-26T12:03:22.584Z,6.97
2018-11-26T12:04:22.583Z,6.93
2018-11-26T12:05:22.543Z,6.99
2018-11-26T12:06:22.531Z,6.96
2018-11-26T12:07:22.658Z,6.96
2018-11-26T12:08:22.540Z,7.03
2018-11-26T12:09:22.534Z,6.93
2018-11-26T12:10:22.503Z,6.99
2018-11-26T12:11:22.474Z,7.07
2018-11-26T12:12:22.466Z,7.01
2018-11-26T12:13:22.455Z,7.07
2018-11-26T12:14:22.554Z,6.99
2018-11-26T12:15:22.431Z,7.00
2018-11-26T12:16:22.464Z,6.96
2018-11-26T12:17:22.408Z,7.00
2018-11-26T12:18:22.511Z,6.96
2018-11-26T12:19:22.421Z,7.06
2018-11-26T12:20:22.417Z,7.06
2018-11-26T12:21:22.365Z,7.07
2018-11-26T12:22:22.356Z,7.06
2018-11-26T12:23:22.343Z,7.10
2018-11-26T12:24:22.368Z,7.07
2018-11-26T12:25:22.329Z,7.15
2018-11-26T12:26:22.328Z,7.26
2018-11-26T12:27:22.302Z,7.18
2018-11-26T12:28:22.299Z,7.21
2018-11-26T12:29:22.326Z,7.25
2018-11-26T12:30:22.284Z,7.28
2018-11-26T12:31:22.268Z,7.28
2018-11-26T12:32:22.339Z,7.26
2018-11-26T12:33:22.233Z,7.33
2018-11-26T12:34:22.237Z,7.24
2018-11-26T12:35:22.206Z,7.29
2018-11-26T12:36:22.205Z,7.36
2018-11-26T12:37:22.184Z,7.40
2018-11-26T12:38:22.196Z,7.33
2018-11-26T12:39:22.301Z,7.34
2018-11-26T12:40:22.162Z,7.34
2018-11-26T12:41:22.143Z,7.36
2018-11-26T12:42:22.139Z,7.42
2018-11-26T12:43:22.127Z,7.39
2018-11-26T12:44:22.131Z,7.39
2018-11-26T12:45:22.101Z,7.42
2018-11-26T12:46:22.136Z,7.44
2018-11-26T12:47:22.076Z,7.40
2018-11-26T12:48:22.090Z,7.39
2018-11-26T12:49:22.080Z,7.42
2018-11-26T12:50:22.088Z,7.42
2018-11-26T12:51:22.038Z,7.43
2018-11-26T12:52:22.092Z,7.44
2018-11-26T12:53:22.019Z,7.46
2018-11-26T12:54:22.022Z,7.44
2018-11-26T12:55:22.020Z,7.47
2018-11-26T12:56:22.004Z,7.49
2018-11-26T12:57:21.967Z,7.47
2018-11-26T12:58:21.949Z,7.49
2018-11-26T12:59:22.041Z,7.62
2018-11-26T13:00:21.973Z,7.58
2018-11-26T13:01:21.945Z,7.57
2018-11-26T13:02:21.930Z,7.68
2018-11-26T13:03:21.916Z,7.54
2018-11-26T13:04:21.890Z,7.60
2018-11-26T13:05:21.898Z,7.60
2018-11-26T13:06:22.008Z,7.64
2018-11-26T13:07:21.879Z,7.61
2018-11-26T13:08:21.845Z,7.62
2018-11-26T13:09:21.853Z,7.68
2018-11-26T13:10:21.844Z,7.66
2018-11-26T13:11:21.820Z,7.66
2018-11-26T13:12:21.799Z,7.66
2018-11-26T13:13:21.812Z,7.58
2018-11-26T13:14:21.772Z,7.60
2018-11-26T13:15:21.871Z,7.73
2018-11-26T13:16:21.750Z,7.69
2018-11-26T13:17:21.739Z,7.62
2018-11-26T13:18:21.769Z,7.83
2018-11-26T13:19:21.757Z,7.74